createdAt,value
2023-01-13T00:01:16.440Z,10.10
2023-01-13T00:03:43.571Z,10.00
2023-01-13T00:06:15.482Z,10.00
2023-01-13T00:08:42.552Z,10.00
2023-01-13T00:11:10.556Z,10.00
2023-01-13T00:13:38.623Z,9.90
2023-01-13T00:16:08.228Z,9.90
2023-01-13T00:18:37.026Z,9.90
2023-01-13T00:21:06.711Z,10.00
2023-01-13T00:23:35.109Z,10.00
2023-01-13T00:26:05.864Z,10.00
2023-01-13T00:28:33.071Z,9.90
2023-01-13T00:31:07.593Z,10.00
2023-01-13T00:33:35.371Z,10.00
2023-01-13T00:36:03.697Z,10.00
2023-01-13T00:38:32.439Z,10.00
2023-01-13T00:41:00.467Z,9.90
2023-01-13T00:43:28.829Z,9.90
2023-01-13T00:45:56.196Z,9.80
2023-01-13T00:48:24.707Z,9.80
2023-01-13T00:51:05.198Z,9.80
2023-01-13T00:53:37.677Z,9.80
2023-01-13T00:56:07.072Z,9.70
2023-01-13T00:58:35.681Z,9.70
2023-01-13T01:01:11.555Z,9.70
2023-01-13T01:03:38.571Z,9.70
2023-01-13T01:06:08.583Z,9.70
2023-01-13T01:08:36.045Z,9.70
2023-01-13T01:11:27.204Z,9.70
2023-01-13T01:13:56.000Z,9.60
2023-01-13T01:16:29.039Z,9.60
2023-01-13T01:18:56.721Z,9.60
2023-01-13T01:21:26.342Z,9.60
2023-01-13T01:23:53.569Z,9.60
2023-01-13T01:26:22.747Z,9.70
2023-01-13T01:28:49.896Z,9.70
2023-01-13T01:31:32.035Z,9.80
2023-01-13T01:33:59.287Z,9.80
2023-01-13T01:36:28.671Z,9.90
2023-01-13T01:38:57.795Z,9.80
2023-01-13T01:41:27.702Z,9.80
2023-01-13T01:44:07.237Z,9.70
2023-01-13T01:46:42.621Z,9.70
2023-01-13T01:49:25.050Z,9.70
2023-01-13T01:52:08.334Z,9.80
2023-01-13T01:54:42.288Z,9.70
2023-01-13T01:57:14.316Z,9.70
2023-01-13T01:59:41.619Z,9.70
2023-01-13T02:02:09.112Z,9.70
2023-01-13T02:04:40.634Z,9.60
2023-01-13T02:07:08.027Z,9.50
2023-01-13T02:09:36.618Z,9.50
2023-01-13T02:12:41.880Z,9.50
2023-01-13T02:15:18.085Z,9.50
2023-01-13T02:18:02.210Z,9.50
2023-01-13T02:20:43.616Z,9.40
2023-01-13T02:23:51.176Z,9.40
2023-01-13T02:26:49.152Z,9.40
2023-01-13T02:30:13.738Z,9.40
2023-01-13T02:32:53.556Z,9.40
2023-01-13T02:35:32.555Z,9.40
2023-01-13T02:38:01.736Z,9.30
2023-01-13T02:40:41.096Z,9.20
2023-01-13T02:43:40.634Z,9.20
2023-01-13T02:46:15.213Z,9.20
2023-01-13T02:48:45.932Z,9.20
2023-01-13T02:51:17.637Z,9.20
2023-01-13T02:53:53.754Z,9.20
2023-01-13T02:56:22.812Z,9.10
2023-01-13T02:58:51.301Z,9.10
2023-01-13T03:01:18.758Z,9.20
2023-01-13T03:03:46.868Z,9.10
2023-01-13T03:06:45.998Z,9.10
2023-01-13T03:09:37.682Z,9.00
2023-01-13T03:12:10.526Z,9.00
2023-01-13T03:14:44.244Z,9.00
2023-01-13T03:17:26.921Z,8.90
2023-01-13T03:20:07.637Z,8.80
2023-01-13T03:22:43.073Z,8.90
2023-01-13T03:25:26.388Z,8.90
2023-01-13T03:28:06.699Z,8.80
2023-01-13T03:30:41.891Z,8.80
2023-01-13T03:33:38.411Z,8.70
2023-01-13T03:36:10.219Z,8.60
2023-01-13T03:38:42.788Z,8.60
2023-01-13T03:41:15.590Z,8.60
2023-01-13T03:44:09.179Z,8.60
2023-01-13T03:46:59.938Z,8.50
2023-01-13T03:49:37.091Z,8.50
2023-01-13T03:52:07.727Z,8.50
2023-01-13T03:54:43.134Z,8.60
2023-01-13T03:57:13.780Z,8.70
2023-01-13T03:59:46.388Z,8.70
2023-01-13T04:02:35.012Z,8.70
2023-01-13T04:05:04.899Z,8.70
2023-01-13T04:07:43.942Z,8.70
2023-01-13T04:10:12.319Z,8.80
2023-01-13T04:13:01.648Z,8.80
2023-01-13T04:15:38.434Z,8.80
2023-01-13T04:18:26.580Z,8.70
2023-01-13T04:20:56.177Z,8.60
2023-01-13T04:23:22.996Z,8.60
2023-01-13T04:25:50.725Z,8.70
2023-01-13T04:28:18.200Z,8.70
2023-01-13T04:30:46.173Z,8.80
2023-01-13T04:33:13.775Z,8.80
2023-01-13T04:35:44.007Z,8.90
2023-01-13T04:38:16.385Z,8.80
2023-01-13T04:40:43.191Z,8.80
2023-01-13T04:43:10.058Z,8.70
2023-01-13T04:45:37.049Z,8.70
2023-01-13T04:48:03.994Z,8.90
2023-01-13T04:50:30.958Z,8.90
2023-01-13T04:52:57.696Z,8.90
2023-01-13T04:55:24.855Z,8.80
2023-01-13T04:57:52.322Z,8.80
2023-01-13T05:00:21.123Z,8.80
2023-01-13T05:02:50.582Z,8.80
2023-01-13T05:05:17.812Z,8.70
2023-01-13T05:07:44.528Z,8.70
2023-01-13T05:10:11.561Z,8.60
2023-01-13T05:12:56.807Z,8.60
2023-01-13T05:15:42.409Z,8.50
2023-01-13T05:18:16.490Z,8.50
2023-01-13T05:20:43.194Z,8.60
2023-01-13T05:23:28.735Z,8.60
2023-01-13T05:25:55.515Z,8.70
2023-01-13T05:28:22.177Z,8.70
2023-01-13T05:30:49.489Z,8.70
2023-01-13T05:33:20.236Z,8.70
2023-01-13T05:35:48.852Z,8.60
2023-01-13T05:38:16.111Z,8.60
2023-01-13T05:41:01.453Z,8.50
2023-01-13T05:43:28.939Z,8.60
2023-01-13T05:46:05.306Z,8.40
2023-01-13T05:48:34.857Z,8.50
2023-01-13T05:51:02.792Z,8.50
2023-01-13T05:53:29.997Z,8.50
2023-01-13T05:55:56.872Z,8.40
2023-01-13T05:58:25.768Z,8.40
2023-01-13T06:00:53.176Z,8.40
2023-01-13T06:03:20.237Z,8.40
2023-01-13T06:05:47.559Z,8.40
2023-01-13T06:08:14.909Z,8.40
2023-01-13T06:10:41.657Z,8.30
2023-01-13T06:13:08.396Z,8.40
2023-01-13T06:15:35.114Z,8.30
2023-01-13T06:18:05.536Z,8.20
2023-01-13T06:20:32.550Z,8.20
2023-01-13T06:22:59.958Z,8.10
2023-01-13T06:25:26.643Z,8.20
2023-01-13T06:27:55.556Z,8.30
2023-01-13T06:30:22.633Z,8.20
2023-01-13T06:32:53.880Z,8.20
2023-01-13T06:35:25.443Z,8.20
2023-01-13T06:37:56.434Z,8.20
2023-01-13T06:40:23.917Z,8.20
2023-01-13T06:43:15.812Z,8.20
2023-01-13T06:45:45.754Z,8.20
2023-01-13T06:48:12.893Z,8.20
2023-01-13T06:50:39.750Z,8.30
2023-01-13T06:53:06.423Z,8.20
2023-01-13T06:55:33.131Z,8.30
2023-01-13T06:57:59.938Z,8.30
2023-01-13T07:00:27.497Z,8.30
2023-01-13T07:02:54.345Z,8.30
2023-01-13T07:05:21.555Z,8.30
2023-01-13T07:07:48.325Z,8.40
2023-01-13T07:10:22.036Z,8.40
2023-01-13T07:13:08.188Z,8.60
2023-01-13T07:15:35.380Z,8.40
2023-01-13T07:18:02.601Z,8.50
2023-01-13T07:20:30.499Z,8.50
2023-01-13T07:22:58.087Z,8.50
2023-01-13T07:25:25.151Z,8.50
2023-01-13T07:27:51.856Z,8.60
2023-01-13T07:30:18.751Z,8.60
2023-01-13T07:32:45.482Z,8.50
2023-01-13T07:35:12.344Z,8.50
2023-01-13T07:37:39.692Z,8.50
2023-01-13T07:40:07.109Z,8.40
2023-01-13T07:42:52.614Z,8.50
2023-01-13T07:45:19.279Z,8.50
2023-01-13T07:47:45.961Z,8.50
2023-01-13T07:50:12.673Z,8.50
2023-01-13T07:52:39.399Z,8.50
2023-01-13T07:55:06.550Z,8.40
2023-01-13T07:57:33.256Z,8.40
2023-01-13T07:59:59.921Z,8.40
2023-01-13T08:02:26.766Z,8.40
2023-01-13T08:04:53.526Z,8.40
2023-01-13T08:07:20.200Z,8.50
2023-01-13T08:09:47.037Z,8.40
2023-01-13T08:12:32.290Z,8.40
2023-01-13T08:14:58.989Z,8.40
2023-01-13T08:17:25.721Z,8.40
2023-01-13T08:19:52.418Z,8.50
2023-01-13T08:22:19.108Z,8.50
2023-01-13T08:24:45.844Z,8.50
2023-01-13T08:27:12.471Z,8.50
2023-01-13T08:29:39.193Z,8.60
2023-01-13T08:32:06.688Z,8.50
2023-01-13T08:34:33.405Z,8.50
2023-01-13T08:37:00.326Z,8.50
2023-01-13T08:39:27.444Z,8.60
2023-01-13T08:41:57.016Z,8.60
2023-01-13T08:44:25.428Z,8.60
2023-01-13T08:46:52.356Z,8.60
2023-01-13T08:49:19.143Z,8.60
2023-01-13T08:51:45.838Z,8.70
2023-01-13T08:54:13.156Z,8.80
2023-01-13T08:56:42.458Z,8.70
2023-01-13T08:59:14.240Z,8.80
2023-01-13T09:01:41.711Z,8.70
2023-01-13T09:04:17.945Z,8.80
2023-01-13T09:06:45.573Z,8.80
2023-01-13T09:09:12.688Z,8.80
2023-01-13T09:12:01.649Z,8.80
2023-01-13T09:14:30.410Z,8.70
2023-01-13T09:16:57.852Z,8.80
2023-01-13T09:19:25.029Z,8.80
2023-01-13T09:21:52.566Z,8.80
2023-01-13T09:24:20.361Z,8.80
2023-01-13T09:26:47.585Z,8.90
2023-01-13T09:29:15.117Z,8.90
2023-01-13T09:31:44.237Z,8.90
2023-01-13T09:34:38.482Z,8.80
2023-01-13T09:37:06.934Z,8.90
2023-01-13T09:39:34.665Z,8.80
2023-01-13T09:42:29.744Z,8.80
2023-01-13T09:45:06.997Z,8.80
2023-01-13T09:47:55.832Z,8.90
2023-01-13T09:50:47.966Z,8.90
2023-01-13T09:53:21.312Z,8.90
2023-01-13T09:55:48.184Z,8.80
2023-01-13T09:58:18.135Z,8.90
2023-01-13T10:01:14.632Z,8.90
2023-01-13T10:03:41.584Z,8.80
2023-01-13T10:06:20.988Z,8.80
2023-01-13T10:08:48.928Z,8.80
2023-01-13T10:11:35.720Z,8.80
2023-01-13T10:14:17.844Z,8.80
2023-01-13T10:16:56.982Z,8.90
2023-01-13T10:19:33.142Z,8.90
2023-01-13T10:22:18.560Z,8.90
2023-01-13T10:24:57.719Z,8.80
2023-01-13T10:27:33.117Z,8.80
2023-01-13T10:30:10.047Z,8.80
2023-01-13T10:32:36.700Z,8.80
2023-01-13T10:35:03.615Z,8.90
2023-01-13T10:37:30.505Z,8.90
2023-01-13T10:40:01.461Z,9.00
2023-01-13T10:42:28.095Z,8.90
2023-01-13T10:45:00.163Z,8.90
2023-01-13T10:47:31.172Z,9.00
2023-01-13T10:50:23.663Z,9.00
2023-01-13T10:53:02.740Z,9.00
2023-01-13T10:55:37.075Z,9.10
2023-01-13T10:58:24.870Z,9.30
2023-01-13T11:01:00.635Z,9.30
2023-01-13T11:03:41.205Z,9.20
2023-01-13T11:06:09.489Z,9.20
2023-01-13T11:08:45.555Z,9.10
2023-01-13T11:11:26.090Z,9.10
2023-01-13T11:14:14.754Z,9.00
2023-01-13T11:16:52.985Z,9.10
2023-01-13T11:19:22.572Z,9.10
2023-01-13T11:22:02.040Z,9.10
2023-01-13T11:24:44.775Z,9.10
2023-01-13T11:27:35.204Z,9.20
2023-01-13T11:30:21.051Z,9.20
2023-01-13T11:33:25.018Z,9.20
2023-01-13T11:35:58.951Z,9.30
2023-01-13T11:38:40.404Z,9.30
2023-01-13T11:41:17.199Z,9.30
2023-01-13T11:44:20.183Z,9.30
2023-01-13T11:46:50.990Z,9.30
2023-01-13T11:49:28.393Z,9.30
2023-01-13T11:52:07.035Z,9.40
2023-01-13T11:54:55.460Z,9.40
2023-01-13T11:57:53.401Z,9.30
2023-01-13T12:00:31.212Z,9.20
2023-01-13T12:03:23.411Z,9.30
2023-01-13T12:06:06.944Z,9.30
2023-01-13T12:09:00.255Z,9.40
2023-01-13T12:12:04.928Z,9.30
2023-01-13T12:14:59.390Z,9.30
2023-01-13T12:18:04.382Z,9.30
2023-01-13T12:20:49.432Z,9.30
2023-01-13T12:23:43.427Z,9.30
2023-01-13T12:26:18.652Z,9.30
2023-01-13T12:28:51.727Z,9.30
2023-01-13T12:31:20.632Z,9.30
2023-01-13T12:34:06.457Z,9.30
2023-01-13T12:36:54.337Z,9.40
2023-01-13T12:39:49.168Z,9.40
2023-01-13T12:42:43.114Z,9.40
2023-01-13T12:45:09.861Z,9.30
2023-01-13T12:47:38.668Z,9.10
2023-01-13T12:50:26.351Z,8.90
2023-01-13T12:52:57.355Z,8.70
2023-01-13T12:55:31.364Z,8.60
2023-01-13T12:58:10.154Z,8.50
2023-01-13T13:00:39.845Z,8.40
2023-01-13T13:03:28.152Z,8.10
2023-01-13T13:06:15.000Z,8.10
2023-01-13T13:08:47.320Z,8.00
2023-01-13T13:11:32.572Z,8.10
2023-01-13T13:14:05.516Z,8.30
2023-01-13T13:16:33.522Z,8.30
2023-01-13T13:19:18.224Z,8.40
2023-01-13T13:22:12.966Z,8.40
2023-01-13T13:24:48.887Z,8.40
2023-01-13T13:27:40.790Z,8.40
2023-01-13T13:30:20.627Z,8.40
2023-01-13T13:33:02.378Z,8.50
2023-01-13T13:35:52.167Z,8.60
2023-01-13T13:39:21.681Z,8.60
2023-01-13T13:42:22.598Z,8.60
2023-01-13T13:45:09.138Z,8.70
2023-01-13T13:47:40.015Z,8.70
2023-01-13T13:50:21.895Z,8.60
2023-01-13T13:53:08.218Z,8.50
2023-01-13T13:58:27.640Z,8.40
2023-01-13T14:00:57.602Z,8.60
2023-01-13T14:03:26.787Z,8.60
2023-01-13T14:05:58.403Z,8.70
2023-01-13T14:08:37.532Z,8.80
2023-01-13T14:11:25.817Z,8.80
2023-01-13T14:14:02.962Z,8.80
2023-01-13T14:16:30.720Z,8.80
2023-01-13T14:18:57.558Z,8.80
2023-01-13T14:21:27.645Z,8.80
2023-01-13T14:24:14.267Z,8.80
2023-01-13T14:26:53.182Z,8.80
2023-01-13T14:29:45.325Z,8.80
2023-01-13T14:32:19.059Z,8.70
2023-01-13T14:34:46.021Z,8.70
2023-01-13T14:37:33.988Z,8.70
2023-01-13T14:40:00.762Z,8.70
2023-01-13T14:42:28.608Z,8.90
2023-01-13T14:44:56.409Z,8.80
2023-01-13T14:47:28.947Z,8.80
2023-01-13T14:50:11.049Z,8.80
2023-01-13T14:52:48.477Z,8.80
2023-01-13T14:55:31.053Z,8.80
2023-01-13T14:58:23.296Z,8.80
2023-01-13T15:00:52.003Z,8.80
2023-01-13T15:03:20.705Z,8.80
2023-01-13T15:05:51.205Z,8.70
2023-01-13T15:08:44.370Z,8.70
2023-01-13T15:11:27.690Z,8.70
2023-01-13T15:14:03.547Z,8.70
2023-01-13T15:16:33.771Z,8.70
2023-01-13T15:19:01.571Z,8.70
2023-01-13T15:21:28.300Z,8.70
2023-01-13T15:24:01.100Z,8.70
2023-01-13T15:26:29.906Z,8.70
2023-01-13T15:28:58.295Z,8.70
2023-01-13T15:31:26.293Z,8.60
2023-01-13T15:33:53.874Z,8.60
2023-01-13T15:36:31.126Z,8.50
2023-01-13T15:43:35.695Z,8.40
2023-01-13T15:46:28.287Z,8.40
2023-01-13T15:49:00.181Z,8.40
2023-01-13T15:51:30.564Z,8.40
2023-01-13T15:54:00.496Z,8.40
2023-01-13T15:56:27.275Z,8.40
2023-01-13T15:58:54.201Z,8.40
2023-01-13T16:01:21.913Z,8.40
2023-01-13T16:03:48.825Z,8.40
2023-01-13T16:06:27.948Z,8.30
2023-01-13T16:08:54.662Z,8.30
2023-01-13T16:11:21.387Z,8.30
2023-01-13T16:13:48.146Z,8.40
2023-01-13T16:16:26.933Z,8.30
2023-01-13T16:18:54.652Z,8.20
2023-01-13T16:21:22.075Z,8.20
2023-01-13T16:23:51.643Z,8.20
2023-01-13T16:26:23.615Z,8.10
2023-01-13T16:28:55.363Z,8.10
2023-01-13T16:31:30.510Z,8.10
2023-01-13T16:34:01.704Z,8.10
2023-01-13T16:36:32.840Z,7.90
2023-01-13T16:39:05.589Z,7.60
2023-01-13T16:41:35.714Z,7.60
2023-01-13T16:44:13.233Z,7.50
2023-01-13T16:46:48.750Z,7.50
2023-01-13T16:49:24.565Z,7.50
2023-01-13T16:51:54.149Z,7.50
2023-01-13T16:54:20.831Z,7.50
2023-01-13T16:56:47.547Z,7.60
2023-01-13T16:59:24.594Z,7.60
2023-01-13T17:01:56.464Z,7.50
2023-01-13T17:04:25.898Z,7.30
2023-01-13T17:07:04.337Z,7.20
2023-01-13T17:09:31.400Z,7.10
2023-01-13T17:11:58.440Z,7.10
2023-01-13T17:14:33.658Z,7.10
2023-01-13T17:17:34.163Z,7.20
2023-01-13T17:19:52.678Z,7.20
2023-01-13T17:22:30.838Z,7.30
2023-01-13T17:25:00.211Z,7.30
2023-01-13T17:27:27.655Z,7.30
2023-01-13T17:29:54.534Z,7.40
2023-01-13T17:32:23.428Z,7.50
2023-01-13T17:34:51.079Z,7.50
2023-01-13T17:37:18.127Z,7.50
2023-01-13T17:40:05.926Z,7.60
2023-01-13T17:42:33.219Z,7.60
2023-01-13T17:45:11.232Z,7.70
2023-01-13T17:47:46.655Z,7.70
2023-01-13T17:50:21.544Z,7.80
2023-01-13T17:52:52.377Z,7.80
2023-01-13T17:55:21.825Z,7.90
2023-01-13T17:57:48.542Z,7.90
2023-01-13T18:00:15.985Z,7.90
2023-01-13T18:02:42.670Z,7.90
2023-01-13T18:05:09.732Z,7.80
2023-01-13T18:07:36.424Z,7.60
2023-01-13T18:10:05.952Z,7.50
2023-01-13T18:12:37.087Z,7.40
2023-01-13T18:15:04.822Z,7.20
2023-01-13T18:17:31.517Z,7.10
2023-01-13T18:20:16.832Z,7.00
2023-01-13T18:23:02.051Z,7.00
2023-01-13T18:25:47.549Z,7.10
2023-01-13T18:28:14.319Z,6.90
2023-01-13T18:30:41.046Z,6.90
2023-01-13T18:33:07.780Z,6.90
2023-01-13T18:35:34.427Z,6.80
2023-01-13T18:38:04.476Z,6.80
2023-01-13T18:40:31.219Z,6.90
2023-01-13T18:42:59.133Z,7.10
2023-01-13T18:45:31.013Z,7.10
2023-01-13T18:48:00.881Z,7.10
2023-01-13T18:50:43.179Z,7.20
2023-01-13T18:53:32.771Z,7.20
2023-01-13T18:56:08.901Z,7.30
2023-01-13T18:58:52.145Z,7.30
2023-01-13T19:01:29.692Z,7.30
2023-01-13T19:04:15.391Z,7.50
2023-01-13T19:06:53.426Z,7.50
2023-01-13T19:09:26.564Z,7.60
2023-01-13T19:11:57.094Z,7.60
2023-01-13T19:14:34.192Z,7.60
2023-01-13T19:17:06.583Z,7.70
2023-01-13T19:19:33.345Z,7.70
2023-01-13T19:22:00.056Z,7.70
2023-01-13T19:24:26.923Z,7.70
2023-01-13T19:26:54.740Z,7.80
2023-01-13T19:29:22.121Z,7.80
2023-01-13T19:31:49.025Z,7.80
2023-01-13T19:34:16.028Z,7.90
2023-01-13T19:36:42.741Z,7.90
2023-01-13T19:39:12.769Z,7.80
2023-01-13T19:41:58.032Z,7.90
2023-01-13T19:44:43.474Z,8.00
2023-01-13T19:47:10.179Z,8.00
2023-01-13T19:49:36.870Z,8.10
2023-01-13T19:52:03.727Z,8.10
2023-01-13T19:54:30.599Z,8.10
2023-01-13T19:56:58.002Z,8.00
2023-01-13T19:59:29.142Z,8.10
2023-01-13T20:02:03.709Z,8.20
2023-01-13T20:04:38.270Z,8.30
2023-01-13T20:07:05.966Z,8.30
2023-01-13T20:09:35.384Z,8.20
2023-01-13T20:12:15.083Z,8.20
2023-01-13T20:14:43.537Z,8.20
2023-01-13T20:17:12.598Z,8.20
2023-01-13T20:19:41.564Z,8.30
2023-01-13T20:22:09.231Z,8.20
2023-01-13T20:24:36.052Z,8.20
2023-01-13T20:27:03.814Z,8.20
2023-01-13T20:29:31.237Z,8.20
2023-01-13T20:31:58.171Z,8.10
2023-01-13T20:34:25.532Z,8.10
2023-01-13T20:36:56.287Z,8.20
2023-01-13T20:39:26.573Z,8.10
2023-01-13T20:42:12.678Z,8.10
2023-01-13T20:44:39.846Z,8.10
2023-01-13T20:47:07.137Z,8.00
2023-01-13T20:49:36.165Z,8.00
2023-01-13T20:52:09.180Z,8.00
2023-01-13T20:54:36.992Z,8.00
2023-01-13T20:57:07.580Z,8.00
2023-01-13T20:59:34.312Z,8.00
2023-01-13T21:02:01.341Z,8.00
2023-01-13T21:04:31.024Z,7.90
2023-01-13T21:06:57.969Z,7.90
2023-01-13T21:09:26.620Z,8.00
2023-01-13T21:12:12.251Z,7.90
2023-01-13T21:14:57.747Z,7.90
2023-01-13T21:17:43.160Z,7.90
2023-01-13T21:20:11.531Z,7.90
2023-01-13T21:22:39.005Z,7.70
2023-01-13T21:25:06.586Z,7.50
2023-01-13T21:27:34.685Z,7.30
2023-01-13T21:30:01.511Z,7.10
2023-01-13T21:32:28.400Z,7.10
2023-01-13T21:34:55.251Z,6.90
2023-01-13T21:37:26.908Z,6.90
2023-01-13T21:39:53.649Z,6.90
2023-01-13T21:42:38.877Z,6.90
2023-01-13T21:45:24.593Z,6.90
2023-01-13T21:47:52.006Z,6.90
2023-01-13T21:50:21.472Z,6.90
2023-01-13T21:52:49.868Z,6.80
2023-01-13T21:55:17.173Z,6.70
2023-01-13T21:57:51.732Z,6.70
2023-01-13T22:00:20.262Z,6.60
2023-01-13T22:02:48.075Z,6.50
2023-01-13T22:05:17.286Z,6.50
2023-01-13T22:07:44.289Z,6.60
2023-01-13T22:10:17.821Z,6.60
2023-01-13T22:12:44.864Z,6.60
2023-01-13T22:15:14.495Z,6.60
2023-01-13T22:17:42.331Z,6.60
2023-01-13T22:20:11.572Z,6.60
2023-01-13T22:22:38.932Z,6.60
2023-01-13T22:25:08.114Z,6.70
2023-01-13T22:27:40.509Z,6.70
2023-01-13T22:30:13.737Z,6.80
2023-01-13T22:32:40.437Z,6.80
2023-01-13T22:35:08.862Z,6.80
2023-01-13T22:37:36.048Z,6.80
2023-01-13T22:40:05.095Z,6.80
2023-01-13T22:42:31.812Z,6.90
2023-01-13T22:44:58.533Z,6.80
2023-01-13T22:47:25.179Z,6.90
2023-01-13T22:49:51.807Z,6.90
2023-01-13T22:52:18.575Z,6.90
2023-01-13T22:54:45.226Z,6.90
2023-01-13T22:57:12.634Z,6.90
2023-01-13T22:59:39.367Z,6.80
2023-01-13T23:02:06.049Z,6.90
2023-01-13T23:04:32.773Z,6.90
2023-01-13T23:07:00.104Z,6.90
2023-01-13T23:09:30.182Z,7.00
2023-01-13T23:11:58.640Z,7.00
2023-01-13T23:14:25.778Z,7.00
2023-01-13T23:16:55.046Z,7.10
2023-01-13T23:19:24.940Z,7.10
2023-01-13T23:21:51.638Z,7.10
2023-01-13T23:24:18.393Z,7.10
2023-01-13T23:26:45.344Z,7.10
2023-01-13T23:29:13.188Z,7.10
2023-01-13T23:31:40.320Z,7.10
2023-01-13T23:34:07.162Z,7.20
2023-01-13T23:36:36.923Z,7.20
2023-01-13T23:39:04.126Z,7.10
2023-01-13T23:41:31.079Z,7.10
2023-01-13T23:43:59.785Z,7.00
2023-01-13T23:46:28.487Z,6.90
2023-01-13T23:48:55.544Z,6.90
2023-01-13T23:51:23.231Z,7.00
2023-01-13T23:53:50.929Z,7.00
2023-01-13T23:56:29.178Z,7.00
2023-01-13T23:58:56.801Z,7.10
